createdAt,value
2016-11-19T00:04:50.166Z,998.01
2016-11-19T00:09:46.524Z,997.98
2016-11-19T00:14:42.893Z,997.97
2016-11-19T00:19:39.329Z,997.95
2016-11-19T00:24:35.664Z,997.98
2016-11-19T00:29:31.605Z,998.01
2016-11-19T00:34:28.295Z,997.84
2016-11-19T00:39:25.468Z,997.79
2016-11-19T00:44:21.832Z,997.76
2016-11-19T00:49:17.867Z,997.66
2016-11-19T00:54:14.181Z,997.62
2016-11-19T00:59:10.450Z,997.76
2016-11-19T01:04:06.813Z,997.73
2016-11-19T01:09:03.177Z,997.68
2016-11-19T01:14:02.007Z,997.57
2016-11-19T01:18:57.753Z,997.53
2016-11-19T01:23:56.640Z,997.56
2016-11-19T01:28:52.322Z,997.70
2016-11-19T01:33:48.630Z,997.66
2016-11-19T01:38:44.946Z,997.63
2016-11-19T01:43:41.837Z,997.75
2016-11-19T01:48:39.066Z,997.67
2016-11-19T01:53:35.438Z,997.68
2016-11-19T01:58:31.661Z,997.71
2016-11-19T02:03:28.076Z,997.66
2016-11-19T02:08:24.619Z,997.66
2016-11-19T02:13:21.153Z,997.58
2016-11-19T02:18:18.377Z,997.50
2016-11-19T02:23:14.918Z,997.52
2016-11-19T02:28:11.688Z,997.53
2016-11-19T02:33:09.226Z,997.49
2016-11-19T02:38:05.432Z,997.51
2016-11-19T02:43:02.263Z,997.43
2016-11-19T02:47:58.652Z,997.39
2016-11-19T02:52:54.913Z,997.35
2016-11-19T02:57:51.198Z,997.43
2016-11-19T03:02:47.558Z,997.42
2016-11-19T03:07:43.928Z,997.46
2016-11-19T03:12:40.834Z,997.44
2016-11-19T03:17:37.372Z,997.24
2016-11-19T03:22:34.436Z,997.14
2016-11-19T03:27:31.011Z,997.10
2016-11-19T03:32:27.390Z,997.15
2016-11-19T03:37:24.372Z,997.32
2016-11-19T03:42:20.933Z,997.31
2016-11-19T03:47:16.895Z,997.28
2016-11-19T03:52:13.537Z,997.23
2016-11-19T03:57:09.784Z,997.21
2016-11-19T04:02:06.449Z,997.18
2016-11-19T04:07:02.784Z,997.17
2016-11-19T04:12:00.252Z,996.98
2016-11-19T04:16:56.768Z,997.08
2016-11-19T04:21:55.836Z,997.06
2016-11-19T04:26:51.599Z,997.01
2016-11-19T04:31:47.905Z,996.88
2016-11-19T04:36:44.355Z,996.94
2016-11-19T04:41:40.767Z,996.98
2016-11-19T04:46:37.132Z,997.05
2016-11-19T04:51:33.567Z,997.14
2016-11-19T04:56:30.287Z,997.13
2016-11-19T05:01:27.500Z,997.14
2016-11-19T05:06:23.865Z,997.13
2016-11-19T05:11:20.543Z,997.11
2016-11-19T05:16:17.061Z,997.11
2016-11-19T05:21:13.587Z,997.31
2016-11-19T05:26:10.704Z,997.44
2016-11-19T05:31:07.343Z,997.39
2016-11-19T05:36:03.793Z,997.34
2016-11-19T05:41:00.144Z,997.31
2016-11-19T05:45:56.614Z,997.22
2016-11-19T05:50:53.089Z,997.24
2016-11-19T05:55:49.719Z,997.28
2016-11-19T06:00:45.814Z,997.35
2016-11-19T06:05:42.208Z,997.37
2016-11-19T06:10:38.749Z,997.27
2016-11-19T06:15:36.551Z,997.36
2016-11-19T06:20:33.386Z,997.35
2016-11-19T06:25:29.923Z,997.31
2016-11-19T06:30:26.303Z,997.30
2016-11-19T06:35:22.866Z,997.30
2016-11-19T06:40:21.805Z,997.27
2016-11-19T06:45:17.694Z,997.24
2016-11-19T06:50:14.015Z,997.26
2016-11-19T06:55:10.682Z,997.34
2016-11-19T07:00:06.850Z,997.33
2016-11-19T07:05:06.162Z,997.35
2016-11-19T07:10:02.022Z,997.38
2016-11-19T07:14:58.603Z,997.56
2016-11-19T07:19:55.195Z,997.57
2016-11-19T07:24:51.748Z,997.59
2016-11-19T07:29:48.485Z,997.57
2016-11-19T07:34:45.036Z,997.63
2016-11-19T07:39:42.029Z,997.81
2016-11-19T07:44:38.572Z,998.05
2016-11-19T07:49:35.212Z,998.02
2016-11-19T07:54:31.504Z,997.92
2016-11-19T07:59:27.995Z,997.84
2016-11-19T08:04:25.855Z,998.07
2016-11-19T08:09:21.943Z,997.89
2016-11-19T08:14:19.374Z,997.77
2016-11-19T08:19:17.150Z,997.83
2016-11-19T08:24:13.734Z,997.86
2016-11-19T08:29:10.340Z,997.92
2016-11-19T08:34:06.702Z,998.08
2016-11-19T08:39:03.227Z,998.09
2016-11-19T08:43:59.673Z,997.99
2016-11-19T08:48:56.066Z,998.08
2016-11-19T08:53:53.656Z,998.11
2016-11-19T08:58:49.852Z,998.12
2016-11-19T09:03:46.149Z,998.07
2016-11-19T09:08:42.693Z,997.99
2016-11-19T09:13:39.666Z,998.26
2016-11-19T09:18:36.002Z,998.35
2016-11-19T09:23:32.328Z,998.30
2016-11-19T09:28:28.778Z,998.50
2016-11-19T09:33:25.335Z,998.42
2016-11-19T09:38:21.636Z,998.51
2016-11-19T09:43:17.907Z,998.52
2016-11-19T09:48:14.493Z,998.39
2016-11-19T09:53:12.132Z,998.60
2016-11-19T09:58:08.433Z,998.46
2016-11-19T10:03:05.537Z,998.35
2016-11-19T10:08:04.652Z,998.38
2016-11-19T10:13:00.543Z,998.36
2016-11-19T10:17:57.341Z,998.29
2016-11-19T10:22:53.998Z,998.34
2016-11-19T10:27:51.920Z,998.30
2016-11-19T10:32:48.330Z,998.37
2016-11-19T10:37:44.751Z,998.53
2016-11-19T10:42:41.052Z,998.60
2016-11-19T10:47:38.299Z,998.59
2016-11-19T10:52:34.918Z,998.58
2016-11-19T10:57:30.859Z,998.60
2016-11-19T11:02:27.216Z,998.71
2016-11-19T11:07:23.811Z,998.75
2016-11-19T11:12:20.361Z,998.76
2016-11-19T11:17:17.812Z,998.77
2016-11-19T11:22:14.759Z,998.79
2016-11-19T11:27:10.952Z,998.75
2016-11-19T11:32:09.085Z,998.70
2016-11-19T11:37:05.587Z,998.83
2016-11-19T11:42:05.134Z,998.66
2016-11-19T11:47:01.079Z,998.73
2016-11-19T11:51:57.469Z,998.73
2016-11-19T11:56:53.896Z,998.78
2016-11-19T12:01:51.036Z,998.89
2016-11-19T12:06:47.440Z,998.86
2016-11-19T12:11:44.346Z,998.88
2016-11-19T12:16:40.891Z,998.88
2016-11-19T12:21:39.975Z,998.90
2016-11-19T12:26:35.624Z,998.99
2016-11-19T12:31:32.039Z,999.00
2016-11-19T12:36:28.480Z,999.03
2016-11-19T12:41:24.939Z,998.95
2016-11-19T12:46:21.446Z,999.05
2016-11-19T12:51:20.337Z,999.02
2016-11-19T12:56:16.931Z,999.03
2016-11-19T13:01:13.161Z,998.99
2016-11-19T13:06:12.077Z,998.95
2016-11-19T13:11:08.664Z,999.00
2016-11-19T13:16:04.928Z,998.96
2016-11-19T13:21:01.151Z,998.97
2016-11-19T13:25:57.358Z,999.00
2016-11-19T13:30:53.824Z,999.01
2016-11-19T13:35:54.730Z,999.07
2016-11-19T13:41:03.455Z,999.12
2016-11-19T13:45:58.519Z,999.10
2016-11-19T13:55:59.023Z,999.12
2016-11-19T14:00:55.156Z,999.22
2016-11-19T14:05:51.458Z,999.25
2016-11-19T14:10:47.728Z,999.29
2016-11-19T14:15:43.939Z,999.28
2016-11-19T14:20:40.518Z,999.27
2016-11-19T14:25:36.855Z,999.43
2016-11-19T14:30:33.018Z,999.36
2016-11-19T14:35:29.405Z,999.44
2016-11-19T14:40:25.819Z,999.50
2016-11-19T14:45:22.468Z,999.60
2016-11-19T14:50:20.308Z,999.45
2016-11-19T14:55:16.311Z,999.54
2016-11-19T15:00:16.322Z,999.42
2016-11-19T15:05:11.881Z,999.53
2016-11-19T15:10:08.205Z,999.59
2016-11-19T15:15:04.648Z,999.72
2016-11-19T15:20:01.288Z,999.76
2016-11-19T15:24:57.551Z,999.73
2016-11-19T15:29:53.884Z,999.65
2016-11-19T15:34:50.233Z,999.65
2016-11-19T15:39:47.041Z,999.79
2016-11-19T15:44:43.632Z,999.83
2016-11-19T15:49:39.871Z,999.80
2016-11-19T15:54:37.203Z,999.88
2016-11-19T15:59:33.655Z,999.84
2016-11-19T16:04:30.608Z,1000.00
2016-11-19T16:09:27.045Z,999.87
2016-11-19T16:14:23.568Z,999.94
2016-11-19T16:19:19.806Z,999.86
2016-11-19T16:24:16.241Z,999.85
2016-11-19T16:29:12.599Z,999.97
2016-11-19T16:34:09.843Z,999.87
2016-11-19T16:39:06.003Z,999.86
2016-11-19T16:44:02.367Z,999.91
2016-11-19T16:48:58.837Z,1000.02
2016-11-19T16:53:55.294Z,1000.04
2016-11-19T16:58:51.643Z,1000.13
2016-11-19T17:03:48.021Z,1000.15
2016-11-19T17:08:44.469Z,1000.12
2016-11-19T17:13:41.380Z,1000.06
2016-11-19T17:18:40.106Z,1000.14
2016-11-19T17:23:36.707Z,1000.16
2016-11-19T17:28:33.673Z,1000.11
2016-11-19T17:33:29.981Z,1000.12
2016-11-19T17:38:26.808Z,1000.26
2016-11-19T17:43:23.143Z,1000.24
2016-11-19T17:48:19.530Z,1000.25
2016-11-19T17:53:15.878Z,1000.19
2016-11-19T17:58:12.199Z,1000.23
2016-11-19T18:03:08.447Z,1000.18
2016-11-19T18:08:04.855Z,1000.22
2016-11-19T18:13:01.327Z,1000.17
2016-11-19T18:17:57.760Z,1000.16
2016-11-19T18:22:54.272Z,1000.22
2016-11-19T18:27:51.367Z,1000.22
2016-11-19T18:32:47.698Z,1000.25
2016-11-19T18:37:44.235Z,1000.32
2016-11-19T18:42:40.397Z,1000.36
2016-11-19T18:47:37.334Z,1000.20
2016-11-19T18:52:34.061Z,1000.29
2016-11-19T18:57:30.465Z,1000.30
2016-11-19T19:02:26.915Z,1000.26
2016-11-19T19:07:23.505Z,1000.29
2016-11-19T19:12:20.060Z,1000.30
2016-11-19T19:17:16.674Z,1000.23
2016-11-19T19:22:13.281Z,1000.25
2016-11-19T19:27:09.719Z,1000.23
2016-11-19T19:32:06.158Z,1000.25
2016-11-19T19:37:02.500Z,1000.19
2016-11-19T19:41:59.003Z,1000.18
2016-11-19T19:46:55.321Z,1000.26
2016-11-19T19:51:51.764Z,1000.26
2016-11-19T19:56:48.156Z,1000.21
2016-11-19T20:01:44.157Z,1000.11
2016-11-19T20:06:40.515Z,1000.21
2016-11-19T20:11:37.450Z,1000.08
2016-11-19T20:16:34.048Z,1000.01
2016-11-19T20:21:30.783Z,1000.06
2016-11-19T20:26:27.161Z,1000.07
2016-11-19T20:31:23.494Z,1000.11
2016-11-19T20:36:19.781Z,1000.13
2016-11-19T20:41:16.243Z,999.98
2016-11-19T20:46:12.864Z,1000.02
2016-11-19T20:51:09.193Z,999.97
2016-11-19T20:56:05.683Z,1000.00
2016-11-19T21:01:02.080Z,999.98
2016-11-19T21:05:58.557Z,999.94
2016-11-19T21:10:55.083Z,999.89
2016-11-19T21:15:51.545Z,999.80
2016-11-19T21:20:48.272Z,999.75
2016-11-19T21:25:45.081Z,999.75
2016-11-19T21:30:41.200Z,999.71
2016-11-19T21:35:37.482Z,999.61
2016-11-19T21:40:34.257Z,999.53
2016-11-19T21:45:30.758Z,999.53
2016-11-19T21:50:27.092Z,999.59
2016-11-19T21:55:23.564Z,999.50
2016-11-19T22:00:20.038Z,999.35
2016-11-19T22:05:16.541Z,999.28
2016-11-19T22:10:13.715Z,999.28
2016-11-19T22:15:12.571Z,999.26
2016-11-19T22:20:08.464Z,999.16
2016-11-19T22:25:04.348Z,999.17
2016-11-19T22:30:02.217Z,999.06
2016-11-19T22:34:58.097Z,999.07
2016-11-19T22:39:54.258Z,999.00
2016-11-19T22:44:50.609Z,999.03
2016-11-19T22:49:46.897Z,998.83
2016-11-19T22:54:43.698Z,998.92
2016-11-19T22:59:40.093Z,998.80
2016-11-19T23:04:37.638Z,998.85
2016-11-19T23:09:33.782Z,998.81
2016-11-19T23:14:30.381Z,998.62
2016-11-19T23:19:26.647Z,998.63
2016-11-19T23:24:23.071Z,998.62
2016-11-19T23:29:19.536Z,998.60
2016-11-19T23:34:18.976Z,998.54
2016-11-19T23:39:15.514Z,998.53
2016-11-19T23:44:11.513Z,998.49
2016-11-19T23:49:08.848Z,998.49
2016-11-19T23:54:05.036Z,998.48
2016-11-19T23:59:01.465Z,998.50
